ADDS METAR Data INFO
IDs: Format: Raw Decoded Include TAF

Data at: 1813 UTC 19 Oct 2017

KLVJ 191753Z AUTO 09012KT 10SM BKN036 29/18 A3014 RMK AO2 SLP204 T02890178 10289 20189 58005
KLVJ 191653Z AUTO 11010KT 10SM FEW032 27/17 A3015 RMK AO2 SLP209 T02720172
KLVJ 191553Z AUTO 08010KT 10SM CLR 27/17 A3016 RMK AO2 SLP211 T02720167
KLVJ 191453Z AUTO 08006KT 10SM CLR 26/18 A3015 RMK AO2 SLP209 T02610183 53013
KLVJ 191353Z AUTO 05006KT 9SM CLR 23/18 A3014 RMK AO2 SLP204 T02280183
KLVJ 191253Z AUTO 04005KT 8SM BKN041 20/18 A3012 RMK AO2 SLP200 T02000178
KLVJ 191153Z AUTO 00000KT 10SM SCT042 19/16 A3011 RMK AO2 SLP196 T01890161 10206 20183 53003
KLVJ 191053Z AUTO 00000KT 10SM BKN040 19/16 A3011 RMK AO2 SLP195 T01940161 $
KLVJ 190953Z AUTO 00000KT 10SM FEW038 19/16 A3010 RMK AO2 SLP193 T01890156 $
KLVJ 190853Z AUTO 00000KT 10SM BKN037 19/16 A3010 RMK AO2 SLP193 T01940161 56007 $
KLVJ 190753Z AUTO 00000KT 10SM BKN035 20/16 A3011 RMK AO2 SLP196 T02000161 $
KLVJ 190653Z AUTO 06005KT 10SM BKN034 19/16 A3011 RMK AO2 SLP195 T01940161 $
KLVJ 190553Z AUTO 00000KT 10SM CLR 21/17 A3012 RMK AO2 SLP200 T02060167 10250 20194 402890122 58007 $
KLVJ 190453Z AUTO 09004KT 10SM CLR 21/17 A3013 RMK AO2 SLP203 T02110167 $
KLVJ 190353Z AUTO 09004KT 10SM CLR 20/17 A3014 RMK AO2 SLP206 T02000172 $
KLVJ 190253Z AUTO 00000KT 10SM SCT032 21/17 A3014 RMK AO2 SLP207 T02060172 51011 $
KLVJ 190153Z AUTO 11003KT 10SM SCT032 22/18 A3014 RMK AO2 SLP207 T02220178 $
KLVJ 190053Z AUTO 11006KT 10SM CLR 23/17 A3013 RMK AO2 SLP201 T02280172 $
KLVJ 182353Z AUTO 11004KT 4SM HZ CLR 24/14 A3011 RMK AO2 SLP196 T02440144 10289 20244 55001
KLVJ 182253Z AUTO 11007KT 10SM CLR 27/14 A3010 RMK AO2 SLP193 T02720139
KLVJ 182153Z AUTO 09007KT 8SM CLR 28/16 A3011 RMK AO2 SLP194 T02780156
KLVJ 182053Z AUTO 08007KT 050V120 5SM HZ CLR 28/16 A3012 RMK AO2 SLP197 T02830161 56017
KLVJ 181953Z AUTO 11006KT 6SM HZ CLR 28/15 A3012 RMK AO2 SLP199 T02830150
KLVJ 181853Z AUTO VRB03KT 6SM HZ CLR 28/14 A3014 RMK AO2 SLP206 T02830139
KLVJ 181753Z AUTO 04005KT 7SM CLR 27/14 A3017 RMK AO2 SLP214 T02720144 10272 20128 58010
KLVJ 181653Z AUTO 00000KT 8SM CLR 26/14 A3018 RMK AO2 SLP220 T02610139
KLVJ 181553Z AUTO VRB03KT 6SM HZ CLR 25/14 A3019 RMK AO2 SLP223 T02500144
KLVJ 181453Z AUTO 05005KT 7SM CLR 23/13 A3020 RMK AO2 SLP224 T02280133 53013
KLVJ 181353Z AUTO 03004KT 8SM CLR 18/12 A3018 RMK AO2 SLP219 T01830122
KLVJ 181253Z AUTO 00000KT 8SM CLR 13/10 A3016 RMK AO2 SLP212 T01330100
KLVJ 181153Z AUTO 00000KT 9SM CLR 13/10 A3016 RMK AO2 SLP212 T01280100 10139 20122 53004
KLVJ 181053Z AUTO 00000KT 10SM CLR 13/10 A3015 RMK AO2 SLP209 T01330100
KLVJ 180953Z AUTO 00000KT 10SM CLR 13/10 A3014 RMK AO2 SLP205 T01330100
KLVJ 180853Z AUTO 00000KT 10SM CLR 13/10 A3015 RMK AO2 SLP208 T01330100 58008
KLVJ 180753Z AUTO 00000KT 10SM CLR 13/10 A3016 RMK AO2 SLP212 T01330100
KLVJ 180653Z AUTO 00000KT 10SM CLR 14/10 A3017 RMK AO2 SLP214 T01390100